createdAt,value
2023-05-06T00:02:44.655Z,73.10
2023-05-06T00:05:50.710Z,71.99
2023-05-06T00:08:57.480Z,70.52
2023-05-06T00:12:03.398Z,71.43
2023-05-06T00:15:14.017Z,68.69
2023-05-06T00:18:28.766Z,68.12
2023-05-06T00:21:41.957Z,66.93
2023-05-06T00:24:48.072Z,71.03
2023-05-06T00:28:01.215Z,71.64
2023-05-06T00:31:10.852Z,71.82
2023-05-06T00:34:17.594Z,70.25
2023-05-06T00:37:23.483Z,67.58
2023-05-06T00:40:30.340Z,68.77
2023-05-06T00:43:36.329Z,68.47
2023-05-06T00:46:46.581Z,68.57
2023-05-06T00:50:00.196Z,68.36
2023-05-06T00:53:24.685Z,70.22
2023-05-06T00:56:31.514Z,70.75
2023-05-06T00:59:40.057Z,72.28
2023-05-06T01:02:49.701Z,72.70
2023-05-06T01:06:22.129Z,69.42
2023-05-06T01:09:41.919Z,67.39
2023-05-06T01:13:01.289Z,68.91
2023-05-06T01:16:12.534Z,65.97
2023-05-06T01:19:46.892Z,66.97
2023-05-06T01:22:59.249Z,65.72
2023-05-06T01:26:18.092Z,66.75
2023-05-06T01:29:24.889Z,65.81
2023-05-06T01:32:47.827Z,65.32
2023-05-06T01:36:23.996Z,66.22
2023-05-06T01:39:52.220Z,64.92
2023-05-06T01:43:08.037Z,66.98
2023-05-06T01:46:21.025Z,68.04
2023-05-06T01:49:30.609Z,66.49
2023-05-06T01:52:36.570Z,65.70
2023-05-06T01:55:43.409Z,67.77
2023-05-06T01:58:51.925Z,67.28
2023-05-06T02:01:59.782Z,69.96
2023-05-06T02:05:08.401Z,66.99
2023-05-06T02:08:22.773Z,66.21
2023-05-06T02:11:29.448Z,66.82
2023-05-06T02:14:46.747Z,67.94
2023-05-06T02:17:52.937Z,73.66
2023-05-06T02:21:01.833Z,73.93
2023-05-06T02:24:08.788Z,72.07
2023-05-06T02:27:16.340Z,71.12
2023-05-06T02:30:24.958Z,72.51
2023-05-06T02:33:31.610Z,70.20
2023-05-06T02:36:37.753Z,70.63
2023-05-06T02:39:46.324Z,71.55
2023-05-06T02:42:52.515Z,72.87
2023-05-06T02:46:01.972Z,70.75
2023-05-06T02:49:12.648Z,73.05
2023-05-06T02:52:21.853Z,72.14
2023-05-06T02:55:28.021Z,69.02
2023-05-06T02:58:36.242Z,71.11
2023-05-06T03:01:51.016Z,69.70
2023-05-06T03:04:57.858Z,70.65
2023-05-06T03:08:03.963Z,70.20
2023-05-06T03:11:14.404Z,71.53
2023-05-06T03:14:20.591Z,72.18
2023-05-06T03:17:30.072Z,72.72
2023-05-06T03:20:38.864Z,73.61
2023-05-06T03:23:47.436Z,71.20
2023-05-06T03:26:54.524Z,73.44
2023-05-06T03:30:08.032Z,70.73
2023-05-06T03:33:17.888Z,69.79
2023-05-06T03:36:25.560Z,70.05
2023-05-06T03:39:33.291Z,68.89
2023-05-06T03:42:41.228Z,71.25
2023-05-06T03:45:48.080Z,70.88
2023-05-06T03:48:58.618Z,68.83
2023-05-06T03:52:05.134Z,69.73
2023-05-06T03:55:19.104Z,70.72
2023-05-06T03:58:25.562Z,74.36
2023-05-06T04:01:32.632Z,72.63
2023-05-06T04:04:43.756Z,81.43
2023-05-06T04:07:51.973Z,80.74
2023-05-06T04:10:58.541Z,82.76
2023-05-06T04:14:08.355Z,84.20
2023-05-06T04:17:15.770Z,89.41
2023-05-06T04:20:26.626Z,86.79
2023-05-06T04:23:33.149Z,89.79
2023-05-06T04:26:41.101Z,89.68
2023-05-06T04:29:47.476Z,88.02
2023-05-06T04:32:56.054Z,80.73
2023-05-06T04:36:05.014Z,80.90
2023-05-06T04:39:13.392Z,73.42
2023-05-06T04:42:20.376Z,72.60
2023-05-06T04:45:40.897Z,71.63
2023-05-06T04:48:47.112Z,72.35
2023-05-06T04:52:05.143Z,71.03
2023-05-06T04:55:13.394Z,70.83
2023-05-06T04:58:26.414Z,68.69
2023-05-06T05:01:33.732Z,70.63
2023-05-06T05:04:47.519Z,79.56
2023-05-06T05:08:09.062Z,78.07
2023-05-06T05:11:36.123Z,81.16
2023-05-06T05:14:43.013Z,81.05
2023-05-06T05:17:52.725Z,80.68
2023-05-06T05:21:11.987Z,82.21
2023-05-06T05:24:22.091Z,82.73
2023-05-06T05:27:28.146Z,81.86
2023-05-06T05:30:37.304Z,85.38
2023-05-06T05:33:44.632Z,85.74
2023-05-06T05:36:56.265Z,84.91
2023-05-06T05:40:08.328Z,84.76
2023-05-06T05:43:18.053Z,87.19
2023-05-06T05:46:24.305Z,84.71
2023-05-06T05:49:32.079Z,82.06
2023-05-06T05:52:38.162Z,76.56
2023-05-06T05:55:47.990Z,78.59
2023-05-06T05:58:55.989Z,81.75
2023-05-06T06:02:10.585Z,81.09
2023-05-06T06:05:17.009Z,81.13
2023-05-06T06:08:24.345Z,79.62
2023-05-06T06:11:34.277Z,77.69
2023-05-06T06:14:42.136Z,77.53
2023-05-06T06:17:48.764Z,78.30
2023-05-06T06:20:57.381Z,76.38
2023-05-06T06:24:03.630Z,74.16
2023-05-06T06:27:21.947Z,72.81
2023-05-06T06:30:28.827Z,72.20
2023-05-06T06:33:38.418Z,68.48
2023-05-06T06:36:46.415Z,71.43
2023-05-06T06:39:53.309Z,71.93
2023-05-06T06:43:08.140Z,70.15
2023-05-06T06:46:36.618Z,72.78
2023-05-06T06:49:42.752Z,70.17
2023-05-06T06:52:49.724Z,66.56
2023-05-06T06:55:56.914Z,66.25
2023-05-06T06:59:06.351Z,66.36
2023-05-06T07:02:12.378Z,65.24
2023-05-06T07:05:19.614Z,67.65
2023-05-06T07:08:25.740Z,67.11
2023-05-06T07:11:32.627Z,67.93
2023-05-06T07:14:41.870Z,64.15
2023-05-06T07:17:48.933Z,62.27
2023-05-06T07:20:55.017Z,68.07
2023-05-06T07:24:01.864Z,66.66
2023-05-06T07:27:07.789Z,66.08
2023-05-06T07:30:21.685Z,69.42
2023-05-06T07:33:29.297Z,72.63
2023-05-06T07:36:47.263Z,69.80
2023-05-06T07:39:53.521Z,67.41
2023-05-06T07:43:00.376Z,67.75
2023-05-06T07:46:09.261Z,68.04
2023-05-06T07:49:25.739Z,68.09
2023-05-06T07:52:31.831Z,70.02
2023-05-06T07:55:38.948Z,65.32
2023-05-06T07:58:44.939Z,66.42
2023-05-06T08:01:54.512Z,70.07
2023-05-06T08:05:00.672Z,71.10
2023-05-06T08:08:08.420Z,66.34
2023-05-06T08:11:14.647Z,65.72
2023-05-06T08:14:21.756Z,68.77
2023-05-06T08:17:33.043Z,66.07
2023-05-06T08:20:42.245Z,70.30
2023-05-06T08:23:48.272Z,69.11
2023-05-06T08:26:55.255Z,70.53
2023-05-06T08:30:01.391Z,67.84
2023-05-06T08:33:11.148Z,71.59
2023-05-06T08:36:17.045Z,68.84
2023-05-06T08:39:24.088Z,73.28
2023-05-06T08:42:31.458Z,71.89
2023-05-06T08:45:40.652Z,70.09
2023-05-06T08:48:49.393Z,74.17
2023-05-06T08:51:57.148Z,71.01
2023-05-06T08:55:08.432Z,70.77
2023-05-06T08:58:20.378Z,70.33
2023-05-06T09:01:26.914Z,72.31
2023-05-06T09:04:36.732Z,74.42
2023-05-06T09:07:42.897Z,76.21
2023-05-06T09:10:51.094Z,83.75
2023-05-06T09:14:14.198Z,67.89
2023-05-06T09:17:28.479Z,73.21
2023-05-06T09:20:45.126Z,75.80
2023-05-06T09:23:52.133Z,77.48
2023-05-06T09:27:01.895Z,79.78
2023-05-06T09:30:13.181Z,80.04
2023-05-06T09:33:19.702Z,81.82
2023-05-06T09:36:31.832Z,83.67
2023-05-06T09:39:37.990Z,91.92
2023-05-06T09:42:47.877Z,90.38
2023-05-06T09:45:56.568Z,86.70
2023-05-06T09:49:04.367Z,85.23
2023-05-06T09:52:16.440Z,102.37
2023-05-06T09:55:27.058Z,136.78
2023-05-06T09:58:36.096Z,145.86
2023-05-06T10:01:44.035Z,135.76
2023-05-06T10:05:11.569Z,119.77
2023-05-06T10:08:23.167Z,128.02
2023-05-06T10:11:32.409Z,116.56
2023-05-06T10:14:39.714Z,114.60
2023-05-06T10:17:49.261Z,129.92
2023-05-06T10:20:57.262Z,126.16
2023-05-06T10:24:14.045Z,136.40
2023-05-06T10:27:27.628Z,138.88
2023-05-06T10:30:44.074Z,127.92
2023-05-06T10:33:56.720Z,133.84
2023-05-06T10:37:04.976Z,146.06
2023-05-06T10:40:19.533Z,161.16
2023-05-06T10:43:32.224Z,153.69
2023-05-06T10:47:03.689Z,154.31
2023-05-06T10:50:26.023Z,159.95
2023-05-06T10:54:06.128Z,166.51
2023-05-06T10:57:15.183Z,168.47
2023-05-06T11:00:22.749Z,172.40
2023-05-06T11:03:28.971Z,187.80
2023-05-06T11:06:43.064Z,186.99
2023-05-06T11:10:00.593Z,173.38
2023-05-06T11:13:28.027Z,171.64
2023-05-06T11:16:52.070Z,161.15
2023-05-06T11:20:23.930Z,159.81
2023-05-06T11:24:13.770Z,168.71
2023-05-06T11:27:26.390Z,170.77
2023-05-06T11:30:34.962Z,171.72
2023-05-06T11:33:50.642Z,166.74
2023-05-06T11:37:05.292Z,176.03
2023-05-06T11:40:18.930Z,162.76
2023-05-06T11:43:24.883Z,171.06
2023-05-06T11:46:36.913Z,198.92
2023-05-06T11:49:45.787Z,176.19
2023-05-06T11:52:52.651Z,171.67
2023-05-06T11:55:58.796Z,189.07
2023-05-06T11:59:05.596Z,196.18
2023-05-06T12:02:18.098Z,240.90
2023-05-06T12:05:29.701Z,194.96
2023-05-06T12:08:39.064Z,171.10
2023-05-06T12:11:48.115Z,175.79
2023-05-06T12:14:56.964Z,182.83
2023-05-06T12:18:08.794Z,185.09
2023-05-06T12:21:14.967Z,191.86
2023-05-06T12:24:31.947Z,201.55
2023-05-06T12:27:39.887Z,227.36
2023-05-06T12:30:47.813Z,269.49
2023-05-06T12:34:01.063Z,280.88
2023-05-06T12:37:11.738Z,320.90
2023-05-06T12:40:22.990Z,334.27
2023-05-06T12:43:34.101Z,312.09
2023-05-06T12:46:53.954Z,343.62
2023-05-06T12:50:03.415Z,356.28
2023-05-06T12:53:13.602Z,318.18
2023-05-06T12:56:20.701Z,308.17
2023-05-06T12:59:29.312Z,274.78
2023-05-06T13:02:38.236Z,245.72
2023-05-06T13:05:52.139Z,226.04
2023-05-06T13:08:59.402Z,223.53
2023-05-06T13:12:05.870Z,208.45
2023-05-06T13:15:14.062Z,216.42
2023-05-06T13:18:20.112Z,227.07
2023-05-06T13:21:31.953Z,241.00
2023-05-06T13:24:37.912Z,269.36
2023-05-06T13:27:44.768Z,299.03
2023-05-06T13:30:50.811Z,307.05
2023-05-06T13:33:58.149Z,313.15
2023-05-06T13:37:08.142Z,308.25
2023-05-06T13:40:16.671Z,290.50
2023-05-06T13:43:25.051Z,289.86
2023-05-06T13:46:34.552Z,291.63
2023-05-06T13:49:42.395Z,316.39
2023-05-06T13:52:51.802Z,320.69
2023-05-06T13:55:57.837Z,329.60
2023-05-06T13:59:08.421Z,313.17
2023-05-06T14:02:16.698Z,309.00
2023-05-06T14:05:23.620Z,309.14
2023-05-06T14:08:33.263Z,304.04
2023-05-06T14:11:40.204Z,290.65
2023-05-06T14:14:46.160Z,263.00
2023-05-06T14:17:53.167Z,262.78
2023-05-06T14:20:59.434Z,244.07
2023-05-06T14:24:10.557Z,236.40
2023-05-06T14:27:21.741Z,229.29
2023-05-06T14:30:28.832Z,224.61
2023-05-06T14:33:34.945Z,210.50
2023-05-06T14:36:41.666Z,223.15
2023-05-06T14:39:50.276Z,220.38
2023-05-06T14:42:57.033Z,212.53
2023-05-06T14:46:03.161Z,206.57
2023-05-06T14:49:09.926Z,206.26
2023-05-06T14:52:16.866Z,187.62
2023-05-06T14:55:26.443Z,185.95
2023-05-06T14:58:32.353Z,170.60
2023-05-06T15:01:39.178Z,185.34
2023-05-06T15:04:46.244Z,185.74
2023-05-06T15:07:53.093Z,193.83
2023-05-06T15:11:05.094Z,190.84
2023-05-06T15:14:11.904Z,183.98
2023-05-06T15:17:18.248Z,191.75
2023-05-06T15:20:24.934Z,183.91
2023-05-06T15:23:37.311Z,190.87
2023-05-06T15:26:50.537Z,188.84
2023-05-06T15:30:08.692Z,200.83
2023-05-06T15:33:18.148Z,194.72
2023-05-06T15:36:24.046Z,196.20
2023-05-06T15:39:31.043Z,200.50
2023-05-06T15:42:41.665Z,187.58
2023-05-06T15:45:50.834Z,192.34
2023-05-06T15:49:22.448Z,193.63
2023-05-06T15:52:28.929Z,198.35
2023-05-06T15:55:43.728Z,199.99
2023-05-06T15:58:53.738Z,208.02
2023-05-06T16:05:18.347Z,203.10
2023-05-06T16:08:31.920Z,202.55
2023-05-06T16:11:38.608Z,206.51
2023-05-06T16:14:47.922Z,213.96
2023-05-06T16:17:54.719Z,221.75
2023-05-06T16:21:01.588Z,224.31
2023-05-06T16:24:11.718Z,246.84
2023-05-06T16:27:20.515Z,232.17
2023-05-06T16:30:31.232Z,241.69
2023-05-06T16:33:37.478Z,230.08
2023-05-06T16:36:44.652Z,218.71
2023-05-06T16:39:56.092Z,220.80
2023-05-06T16:43:03.019Z,228.97
2023-05-06T16:46:11.580Z,227.80
2023-05-06T16:49:20.636Z,229.66
2023-05-06T16:52:26.841Z,226.44
2023-05-06T16:55:33.738Z,239.20
2023-05-06T16:58:39.760Z,244.17
2023-05-06T17:01:49.193Z,247.10
2023-05-06T17:04:55.341Z,252.03
2023-05-06T17:08:03.966Z,261.36
2023-05-06T17:11:11.768Z,259.50
2023-05-06T17:14:20.165Z,243.90
2023-05-06T17:17:29.105Z,230.57
2023-05-06T17:20:51.404Z,226.87
2023-05-06T17:24:01.777Z,231.18
2023-05-06T17:27:08.712Z,235.03
2023-05-06T17:30:15.556Z,213.88
2023-05-06T17:33:25.186Z,223.81
2023-05-06T17:36:31.537Z,209.83
2023-05-06T17:39:38.776Z,209.98
2023-05-06T17:42:46.418Z,206.10
2023-05-06T17:45:53.360Z,213.05
2023-05-06T17:49:02.080Z,214.02
2023-05-06T17:52:11.784Z,209.88
2023-05-06T17:55:18.090Z,210.51
2023-05-06T17:58:24.968Z,222.27
2023-05-06T18:01:35.653Z,221.56
2023-05-06T18:04:47.721Z,224.63
2023-05-06T18:07:53.717Z,217.29
2023-05-06T18:11:00.766Z,222.02
2023-05-06T18:14:15.150Z,215.50
2023-05-06T18:17:22.150Z,222.41
2023-05-06T18:20:30.925Z,222.73
2023-05-06T18:23:37.758Z,214.43
2023-05-06T18:26:45.832Z,228.20
2023-05-06T18:29:53.237Z,240.08
2023-05-06T18:32:59.331Z,230.23
2023-05-06T18:36:17.676Z,238.70
2023-05-06T18:39:26.989Z,238.23
2023-05-06T18:42:35.306Z,245.99
2023-05-06T18:45:41.701Z,252.26
2023-05-06T18:48:48.666Z,252.29
2023-05-06T18:51:57.751Z,255.32
2023-05-06T18:55:04.966Z,250.78
2023-05-06T18:58:14.334Z,244.44
2023-05-06T19:01:40.441Z,695.51
2023-05-06T19:04:47.886Z,1004.43
2023-05-06T19:08:02.077Z,381.89
2023-05-06T19:11:19.449Z,280.94
2023-05-06T19:14:26.339Z,260.35
2023-05-06T19:17:32.286Z,243.02
2023-05-06T19:20:39.604Z,254.08
2023-05-06T19:23:49.517Z,254.08
2023-05-06T19:26:56.343Z,239.33
2023-05-06T19:30:17.496Z,244.90
2023-05-06T19:33:24.530Z,250.60
2023-05-06T19:36:50.445Z,238.88
2023-05-06T19:40:04.156Z,244.45
2023-05-06T19:43:10.121Z,243.06
2023-05-06T19:46:20.326Z,252.97
2023-05-06T19:49:26.701Z,233.04
2023-05-06T19:52:34.904Z,224.03
2023-05-06T19:55:48.722Z,211.00
2023-05-06T19:58:58.069Z,222.20
2023-05-06T20:02:10.530Z,219.53
2023-05-06T20:05:17.591Z,227.90
2023-05-06T20:08:24.920Z,239.79
2023-05-06T20:11:34.991Z,215.97
2023-05-06T20:14:54.402Z,206.15
2023-05-06T20:18:01.819Z,196.36
2023-05-06T20:21:07.804Z,190.09
2023-05-06T20:24:14.732Z,208.91
2023-05-06T20:27:23.776Z,201.52
2023-05-06T20:30:30.841Z,206.60
2023-05-06T20:33:37.024Z,195.89
2023-05-06T20:36:44.924Z,200.09
2023-05-06T20:39:50.977Z,210.02
2023-05-06T20:43:00.444Z,207.14
2023-05-06T20:46:07.136Z,196.41
2023-05-06T20:49:14.129Z,207.01
2023-05-06T20:52:21.846Z,204.68
2023-05-06T20:55:30.743Z,200.71
2023-05-06T20:58:39.302Z,198.75
2023-05-06T21:01:46.226Z,201.04
2023-05-06T21:04:52.522Z,192.81
2023-05-06T21:07:59.371Z,203.62
2023-05-06T21:11:15.490Z,192.43
2023-05-06T21:14:25.568Z,193.24
2023-05-06T21:17:32.266Z,192.91
2023-05-06T21:20:39.292Z,191.78
2023-05-06T21:23:45.291Z,190.05
2023-05-06T21:26:52.208Z,187.46
2023-05-06T21:30:03.916Z,177.42
2023-05-06T21:33:11.530Z,187.10
2023-05-06T21:36:17.755Z,184.83
2023-05-06T21:39:32.355Z,192.71
2023-05-06T21:42:38.289Z,178.39
2023-05-06T21:45:48.364Z,185.25
2023-05-06T21:48:54.278Z,179.95
2023-05-06T21:52:01.074Z,184.56
2023-05-06T21:55:08.725Z,177.01
2023-05-06T21:58:16.505Z,174.12
2023-05-06T22:01:26.452Z,169.17
2023-05-06T22:04:36.526Z,173.10
2023-05-06T22:07:42.500Z,165.77
2023-05-06T22:10:49.446Z,173.55
2023-05-06T22:13:55.422Z,168.03
2023-05-06T22:17:05.212Z,174.00
2023-05-06T22:20:16.379Z,182.34
2023-05-06T22:23:24.333Z,175.40
2023-05-06T22:26:36.508Z,169.92
2023-05-06T22:29:43.450Z,187.35
2023-05-06T22:32:52.186Z,189.48
2023-05-06T22:35:59.162Z,188.62
2023-05-06T22:39:12.449Z,197.61
2023-05-06T22:42:19.227Z,189.78
2023-05-06T22:45:33.533Z,199.86
2023-05-06T22:48:45.031Z,184.20
2023-05-06T22:51:51.293Z,181.77
2023-05-06T22:54:58.073Z,189.59
2023-05-06T22:58:04.109Z,182.16
2023-05-06T23:01:11.074Z,180.52
2023-05-06T23:04:19.678Z,183.87
2023-05-06T23:07:26.719Z,182.03
2023-05-06T23:10:32.722Z,182.46
2023-05-06T23:13:39.428Z,191.47
2023-05-06T23:16:49.925Z,182.47
2023-05-06T23:20:06.244Z,172.77
2023-05-06T23:23:18.216Z,173.46
2023-05-06T23:26:25.145Z,179.27
2023-05-06T23:29:31.222Z,175.90
2023-05-06T23:32:38.186Z,183.63
2023-05-06T23:35:47.933Z,179.54
2023-05-06T23:38:54.686Z,187.85
2023-05-06T23:42:00.952Z,168.67
2023-05-06T23:45:09.339Z,173.69
2023-05-06T23:48:16.522Z,171.93
2023-05-06T23:51:26.866Z,170.21
2023-05-06T23:54:33.139Z,159.52
2023-05-06T23:57:40.115Z,161.68
